Time;durP1;ratioP1;P1;durP2;ratioP2;P2;SDS_P1;SDS_P2;PMS_P1;PMS_P2;Temp;Humidity;BMP_temperature;BMP_pressure;BME280_temperature;BME280_humidity;BME280_pressure;Samples;Min_cycle;Max_cycle;Signal;HPM_P1;HPM_P2
2022/07/03 00:02:06;;;;;;;12.80;9.73;;;;;;;15.97;100.00;98685.86;1733640;81;27983;-89
2022/07/03 00:04:37;;;;;;;;;;;;;;;16.12;100.00;98692.42;1760050;80;28101;-89
2022/07/03 00:07:03;;;;;;;;;;;;;;;16.26;100.00;98695.14;1755234;79;24866;-85
2022/07/03 00:09:29;;;;;;;;;;;;;;;16.32;100.00;98698.56;1755834;79;46357;-86
2022/07/03 00:11:55;;;;;;;;;;;;;;;16.42;100.00;98697.28;1755334;79;137829;-86
2022/07/03 00:14:21;;;;;;;;;;;;;;;16.46;100.00;98703.47;1756636;80;20604;-87
2022/07/03 00:16:47;;;;;;;;;;;;;;;16.51;100.00;98703.05;1752368;80;44406;-87
2022/07/03 00:19:16;;;;;;;;;;;;;;;16.51;100.00;98698.61;1750736;80;20402;-90
2022/07/03 00:21:44;;;;;;;;;;;;;;;16.51;100.00;98701.25;1780537;78;21944;-87
2022/07/03 00:24:11;;;;;;;;;;;;;;;16.49;100.00;98697.90;1775929;79;26037;-90
2022/07/03 00:26:39;;;;;;;;;;;;;;;16.39;100.00;98695.73;1744875;81;24617;-85
2022/07/03 00:29:08;;;;;;;;;;;;;;;16.37;100.00;98696.34;1766683;79;20214;-87
2022/07/03 00:31:34;;;;;;;;;;;;;;;16.37;100.00;98692.38;1729118;81;24853;-85
2022/07/03 00:34:01;;;;;;;;;;;;;;;16.37;100.00;98683.63;1750115;80;20321;-85
2022/07/03 00:36:29;;;;;;;;;;;;;;;16.37;100.00;98690.23;1749813;80;25958;-86
2022/07/03 00:38:55;;;;;;;;;;;;;;;16.37;100.00;98688.91;1741489;80;24389;-85
2022/07/03 00:41:27;;;;;;;;;;;;;;;16.35;100.00;98693.03;1745887;81;53685;-86
2022/07/03 00:43:53;;;;;;;;;;;;;;;16.35;100.00;98689.06;1763053;80;25417;-85
2022/07/03 00:46:21;;;;;;;;;;;;;;;16.38;100.00;98692.73;1746847;80;21971;-87
2022/07/03 00:48:48;;;;;;;;;;;;;;;16.39;100.00;98689.61;1749804;80;26762;-87
2022/07/03 00:51:26;;;;;;;;;;;;;;;16.38;100.00;98697.19;1754648;80;27431;-86
2022/07/03 00:53:55;;;;;;;12.90;10.38;;;;;;;16.38;100.00;98698.51;1735911;80;177926;-87
2022/07/03 00:56:31;;;;;;;13.28;10.93;;;;;;;16.38;100.00;98693.22;1785476;78;28081;-85
2022/07/03 00:59:00;;;;;;;13.72;9.28;;;;;;;16.31;100.00;98686.33;1733151;81;28015;-87
2022/07/03 01:01:29;;;;;;;;;;;;;;;16.23;100.00;98683.06;1741436;81;28094;-86
2022/07/03 01:04:08;;;;;;;;;;;;;;;16.12;100.00;98684.50;1742082;81;24488;-87
2022/07/03 01:06:36;;;;;;;;;;;;;;;16.00;100.00;98678.98;1740517;81;20246;-86
2022/07/03 01:09:12;;;;;;;;;;;;;;;15.92;100.00;98676.67;1740599;80;35536;-86
2022/07/03 01:11:40;;;;;;;;;;;;;;;15.89;100.00;98675.96;1788278;78;22089;-86
2022/07/03 01:14:26;;;;;;;;;;;;;;;16.00;100.00;98679.45;1769523;78;26166;-86
2022/07/03 01:16:57;;;;;;;;;;;;;;;16.10;100.00;98676.35;1729786;82;24487;-86
2022/07/03 01:19:30;;;;;;;;;;;;;;;16.21;100.00;98676.23;1773343;80;20233;-86
2022/07/03 01:22:17;;;;;;;;;;;;;;;16.22;100.00;98677.43;1776882;79;25562;-86
2022/07/03 01:24:45;;;;;;;;;;;;;;;16.23;100.00;98671.66;1774976;80;22079;-86
2022/07/03 01:27:13;;;;;;;;;;;;;;;16.23;100.00;98665.06;1775309;79;26454;-86
2022/07/03 01:29:46;;;;;;;;;;;;;;;16.21;100.00;98670.95;1774931;79;24496;-90
2022/07/03 01:32:14;;;;;;;;;;;;;;;16.23;100.00;98670.34;1775144;78;20206;-86
2022/07/03 01:34:43;;;;;;;;;;;;;;;16.29;100.00;98669.80;1760869;80;24888;-89
2022/07/03 01:37:11;;;;;;;;;;;;;;;16.29;100.00;98668.00;1763439;79;68095;-86
2022/07/03 01:39:39;;;;;;;;;;;;;;;16.29;100.00;98668.48;1767141;80;26652;-85
2022/07/03 01:42:05;;;;;;;;;;;;;;;16.23;100.00;98654.50;1763402;80;24639;-86
2022/07/03 01:44:33;;;;;;;;;;;;;;;16.17;100.00;98649.28;1766835;80;21078;-87
2022/07/03 01:46:59;;;;;;;;;;;;;;;16.07;100.00;98649.75;1755916;79;205752;-85
2022/07/03 01:49:27;;;;;;;;;;;;;;;16.00;100.00;98645.98;1767056;79;22063;-87
2022/07/03 01:51:54;;;;;;;;;;;;;;;15.88;100.00;98633.86;1759810;80;36672;-90
2022/07/03 01:54:25;;;;;;;;;;;;;;;15.79;100.00;98634.68;1765312;79;24517;-86
2022/07/03 01:56:51;;;;;;;;;;;;;;;15.74;100.00;98634.25;1763669;79;20236;-85
2022/07/03 01:59:22;;;;;;;;;;;;;;;15.71;100.00;98638.49;1767156;79;20758;-89
2022/07/03 02:01:50;;;;;;;;;;;;;;;15.69;100.00;98633.34;1769400;80;21962;-86
2022/07/03 02:04:40;;;;;;;;;;;;;;;15.66;100.00;98632.27;1765925;81;25969;-89
2022/07/03 02:07:10;;;;;;;;;;;;;;;15.62;100.00;98634.00;1764001;79;24432;-87
2022/07/03 02:09:55;;;;;;;;;;;;;;;15.62;100.00;98646.70;1764378;79;20221;-87
2022/07/03 02:12:22;;;;;;;;;;;;;;;15.63;100.00;98640.95;1763520;79;24818;-86
2022/07/03 02:14:50;;;;;;;;;;;;;;;15.60;100.00;98646.51;1762874;79;22127;-86
2022/07/03 02:17:17;;;;;;;;;;;;;;;15.57;100.00;98645.44;1755838;79;26276;-86
2022/07/03 02:19:57;;;;;;;;;;;;;;;15.56;100.00;98645.08;1765187;79;25270;-87
2022/07/03 02:22:25;;;;;;;;;;;;;;;15.56;100.00;98627.93;1765748;79;20225;-86
2022/07/03 02:24:52;;;;;;;;;;;;;;;15.52;100.00;98612.03;1764323;79;24901;-89
2022/07/03 02:27:23;;;;;;;;;;;;;;;15.49;100.00;98614.44;1767256;79;22600;-86
2022/07/03 02:29:53;;;;;;;;;;;;;;;15.46;100.00;98614.20;1760652;79;209253;-87
2022/07/03 02:32:22;;;;;;;;;;;;;;;15.44;100.00;98622.72;1765917;79;24611;-87
2022/07/03 02:34:57;;;;;;;;;;;;;;;15.48;100.00;98625.47;1766157;80;20239;-85
2022/07/03 02:37:31;;;;;;;;;;;;;;;15.49;100.00;98632.38;1738405;82;24910;-85
2022/07/03 02:40:05;;;;;;;;;;;;;;;15.47;100.00;98626.42;1731389;79;22852;-85
2022/07/03 02:42:49;;;;;;;;;;;;;;;15.45;100.00;98633.62;1738448;81;26085;-88
2022/07/03 02:45:17;;;;;;;;;;;;;;;15.49;100.00;98624.47;1734003;82;24554;-86
2022/07/03 02:47:53;;;;;;;;;;;;;;;15.54;100.00;98624.61;1735934;79;203847;-89
2022/07/03 02:50:22;;;;;;;;;;;;;;;15.52;100.00;98622.09;1739800;81;24728;-89
2022/07/03 02:53:08;;;;;;;;;;;;;;;15.49;100.00;98612.60;1739052;81;27028;-89
2022/07/03 02:55:36;;;;;;;;;;;;;;;15.49;100.00;98617.88;1741648;79;26048;-86
2022/07/03 02:58:21;;;;;;;;;;;;;;;15.51;100.00;98617.75;1737266;79;24438;-86
2022/07/03 03:00:48;;;;;;;;;;;;;;;15.55;100.00;98623.65;1739171;81;20181;-88
2022/07/03 03:03:16;;;;;;;;;;;;;;;15.62;100.00;98620.80;1728130;81;25547;-88
2022/07/03 03:05:55;;;;;;;;;;;;;;;15.64;100.00;98624.16;1739396;79;22202;-86
2022/07/03 03:08:26;;;;;;;;;;;;;;;15.62;100.00;98622.96;1742332;81;26715;-87
2022/07/03 03:10:53;;;;;;;;;;;;;;;15.62;100.00;98617.69;1741279;79;24661;-87
2022/07/03 03:13:21;;;;;;;;;;;;;;;15.65;100.00;98613.48;1736124;79;20314;-86
2022/07/03 03:16:05;;;;;;;;;;;;;;;15.66;100.00;98618.24;1734605;82;24324;-86
2022/07/03 03:18:33;;;;;;;;;;;;;;;15.66;100.00;98618.24;1734550;79;21850;-87
2022/07/03 03:21:05;;;;;;;;;;;;;;;15.64;100.00;98618.88;1741292;79;26171;-87
2022/07/03 03:23:51;;;;;;;;;;;;;;;15.70;100.00;98626.27;1743424;82;24495;-86
2022/07/03 03:26:19;;;;;;;;;;;;;;;15.73;100.00;98624.66;1720127;80;20213;-88
2022/07/03 03:28:49;;;;;;;;;;;;;;;15.81;100.00;98618.23;1741138;81;24800;-85
2022/07/03 03:31:27;;;;;;;;;;;;;;;15.82;100.00;98614.12;1742511;79;21173;-85
2022/07/03 03:33:54;;;;;;;;;;;;;;;15.81;100.00;98608.52;1722895;79;25967;-86
2022/07/03 03:36:23;;;;;;;;;;;;;;;15.76;100.00;98597.53;1704629;82;24449;-88
2022/07/03 03:38:49;;;;;;;;;;;;;;;15.72;100.00;98600.55;1710243;83;20261;-86
2022/07/03 03:41:15;;;;;;;;;;;;;;;15.73;100.00;98603.55;1712686;82;24706;-87
2022/07/03 03:43:42;;;;;;;;;;;;;;;15.76;100.00;98596.70;1709642;81;21904;-86
2022/07/03 03:46:08;;;;;;;;;;;;;;;15.81;100.00;98602.41;1712312;83;26052;-84
2022/07/03 03:48:36;;;;;;;;;;;;;;;15.84;100.00;98598.16;1712152;83;20239;-84
2022/07/03 03:51:07;;;;;;;;;;;;;;;15.87;100.00;98596.58;1711019;82;20158;-88
2022/07/03 03:53:36;;;;;;;;;;;;;;;15.90;100.00;98598.94;1710880;82;24807;-85
2022/07/03 03:56:06;;;;;;;;;;;;;;;15.96;100.00;98599.71;1710866;83;22003;-85
2022/07/03 03:58:35;;;;;;;;;;;;;;;15.97;100.00;98598.75;1710112;83;26810;-84
2022/07/03 04:01:11;;;;;;;;;;;;;;;16.00;100.00;98598.46;1707420;83;25034;-89
2022/07/03 04:03:37;;;;;;;;;;;;;;;16.01;100.00;98590.89;1728427;80;20350;-89
2022/07/03 04:06:03;;;;;;;;;;;;;;;15.99;100.00;98595.47;1728491;81;25432;-88
2022/07/03 04:08:30;;;;;;;;;;;;;;;16.03;100.00;98594.73;1731065;81;22554;-86
2022/07/03 04:10:55;;;;;;;;;;;;;;;16.05;100.00;98598.88;1730077;81;26762;-87
2022/07/03 04:13:22;;;;;;;;;;;;;;;16.08;100.00;98603.91;1729543;81;20864;-84
2022/07/03 04:15:50;;;;;;;;;;;;;;;16.14;100.00;98606.48;1730024;81;20152;-87
2022/07/03 04:18:16;;;;;;;;;;;;;;;16.16;100.00;98606.67;1728665;81;24922;-86
2022/07/03 04:20:42;;;;;;;;;;;;;;;16.21;100.00;98608.41;1731422;81;20331;-86
2022/07/03 04:23:09;;;;;;;;;;;;;;;16.22;100.00;98608.77;1724993;81;26094;-84
2022/07/03 04:25:35;;;;;;;14.90;11.33;;;;;;;16.28;100.00;98602.09;1724047;81;89467;-84
2022/07/03 04:28:01;;;;;;;13.88;11.75;;;;;;;16.37;100.00;98611.82;1718327;80;28168;-86
2022/07/03 04:30:33;;;;;;;13.80;10.98;;;;;;;16.40;100.00;98610.23;1764133;80;28068;-86
2022/07/03 04:33:01;;;;;;;17.80;12.15;;;;;;;16.47;100.00;98610.52;1763238;78;28133;-86
2022/07/03 04:35:27;;;;;;;15.68;12.23;;;;;;;16.53;100.00;98606.00;1762481;80;28133;-89
2022/07/03 04:37:54;;;;;;;13.72;11.38;;;;;;;16.60;100.00;98599.19;1759752;80;28094;-89
2022/07/03 04:40:21;;;;;;;13.30;11.45;;;;;;;16.65;100.00;98608.37;1762513;80;28099;-86
2022/07/03 04:42:47;;;;;;;14.03;10.78;;;;;;;16.70;100.00;98600.02;1756700;80;28102;-85
2022/07/03 04:45:14;;;;;;;15.23;10.45;;;;;;;16.78;100.00;98596.67;1721919;81;28058;-89
2022/07/03 04:47:40;;;;;;;14.83;10.53;;;;;;;16.82;100.00;98605.48;1725135;81;28188;-86
2022/07/03 04:50:07;;;;;;;13.22;11.30;;;;;;;16.84;100.00;98608.84;1724005;81;28081;-86
2022/07/03 04:52:39;;;;;;;15.78;11.30;;;;;;;16.78;100.00;98604.11;1765600;79;28108;-85
2022/07/03 04:55:07;;;;;;;13.62;10.98;;;;;;;16.81;100.00;98605.63;1723408;80;28109;-86
2022/07/03 04:57:33;;;;;;;11.95;10.08;;;;;;;16.85;100.00;98603.91;1748805;80;28123;-86
2022/07/03 04:59:59;;;;;;;15.00;10.90;;;;;;;16.87;100.00;98601.93;1745467;80;28119;-85
2022/07/03 05:02:25;;;;;;;14.30;10.10;;;;;;;16.93;100.00;98605.33;1743148;80;28152;-87
2022/07/03 05:04:51;;;;;;;15.18;12.37;;;;;;;17.01;100.00;98606.79;1749320;80;28085;-89
2022/07/03 05:07:29;;;;;;;13.78;10.95;;;;;;;17.05;100.00;98598.91;1751714;80;28034;-88
2022/07/03 05:10:01;;;;;;;12.40;10.45;;;;;;;17.09;100.00;98601.59;1751852;80;28093;-89
2022/07/03 05:12:27;;;;;;;13.18;10.43;;;;;;;17.22;100.00;98601.77;1749161;80;28069;-87
2022/07/03 05:14:58;;;;;;;13.72;11.08;;;;;;;17.33;100.00;98605.56;1730738;81;28179;-85
2022/07/03 05:17:24;;;;;;;12.97;10.17;;;;;;;17.42;100.00;98596.74;1767282;80;33675;-85
2022/07/03 05:20:23;;;;;;;11.88;10.18;;;;;;;17.48;100.00;98597.00;1721941;81;28057;-86
2022/07/03 05:22:21;;;;;;;12.95;10.40;;;;;;;17.52;100.00;98596.20;1742311;80;28048;-87
2022/07/03 05:24:49;;;;;;;13.25;10.32;;;;;;;17.54;100.00;98598.22;1730668;80;43426;-88
2022/07/03 05:27:15;;;;;;;12.55;10.93;;;;;;;17.58;100.00;98600.91;1734359;79;28083;-87
2022/07/03 05:29:41;;;;;;;12.68;9.60;;;;;;;17.58;100.00;98601.75;1725012;81;28085;-86
2022/07/03 05:32:07;;;;;;;;;;;;;;;17.70;100.00;98603.74;1731073;81;28017;-86
2022/07/03 05:34:34;;;;;;;;;;;;;;;17.84;100.00;98601.91;1748510;80;21947;-85
2022/07/03 05:37:01;;;;;;;;;;;;;;;17.96;100.00;98597.23;1750453;80;26035;-85
2022/07/03 05:39:33;;;;;;;;;;;;;;;18.06;100.00;98593.19;1771310;79;25203;-85
2022/07/03 05:42:00;;;;;;;;;;;;;;;18.16;100.00;98596.63;1765697;78;20281;-87
2022/07/03 05:44:26;;;;;;;;;;;;;;;18.22;100.00;98601.33;1741273;80;24907;-86
2022/07/03 05:46:51;;;;;;;;;;;;;;;18.25;100.00;98603.66;1741616;80;20887;-88
2022/07/03 05:49:17;;;;;;;;;;;;;;;18.31;100.00;98606.55;1768516;79;26617;-85
2022/07/03 05:51:47;;;;;;;;;;;;;;;18.38;100.00;98605.45;1732560;79;38484;-86
2022/07/03 05:54:14;;;;;;;;;;;;;;;18.57;100.00;98606.63;1743069;80;20216;-88
2022/07/03 05:56:46;;;;;;;;;;;;;;;18.70;100.00;98607.08;1730789;81;25022;-89
2022/07/03 05:59:12;;;;;;;;;;;;;;;18.69;100.00;98601.44;1754213;81;22189;-88
2022/07/03 06:01:38;;;;;;;;;;;;;;;18.72;100.00;98602.93;1771280;78;26183;-87
2022/07/03 06:04:04;;;;;;;;;;;;;;;18.73;100.00;98600.13;1768033;79;20322;-86
2022/07/03 06:06:41;;;;;;;;;;;;;;;18.79;100.00;98599.52;1768658;80;20860;-87
2022/07/03 06:09:13;;;;;;;;;;;;;;;18.93;100.00;98594.65;1741540;80;24773;-86
2022/07/03 06:11:39;;;;;;;;;;;;;;;19.05;100.00;98598.19;1755767;80;22778;-87
2022/07/03 06:14:04;;;;;;;;;;;;;;;19.02;100.00;98591.89;1750415;80;20928;-86
2022/07/03 06:16:36;;;;;;;;;;;;;;;19.09;100.00;98599.53;1724533;80;20852;-86
2022/07/03 06:19:08;;;;;;;;;;;;;;;19.15;100.00;98593.61;1735944;80;20140;-86
2022/07/03 06:21:37;;;;;;;;;;;;;;;19.22;100.00;98594.65;1761098;79;24717;-85
2022/07/03 06:24:03;;;;;;;;;;;;;;;19.25;100.00;98593.52;1767073;79;22127;-86
2022/07/03 06:26:29;;;;;;;;;;;;;;;19.24;100.00;98593.17;1767524;79;26021;-86
2022/07/03 06:28:55;;;;;;;;;;;;;;;19.27;100.00;98586.70;1760508;79;20437;-86
2022/07/03 06:31:21;;;;;;;;;;;;;;;19.34;100.00;98592.55;1760036;79;20828;-85
2022/07/03 06:33:48;;;;;;;;;;;;;;;19.40;100.00;98589.27;1765183;79;20687;-85
2022/07/03 06:36:23;;;;;;;;;;;;;;;19.46;100.00;98586.02;1773908;79;22666;-85
2022/07/03 06:38:49;;;;;;;;;;;;;;;19.60;100.00;98584.56;1767569;80;26674;-85
2022/07/03 06:41:17;;;;;;;;;;;;;;;19.72;100.00;98592.58;1761372;79;24583;-85
2022/07/03 06:43:43;;;;;;;;;;;;;;;19.79;100.00;98586.14;1769137;79;21003;-85
2022/07/03 06:46:13;;;;;;;;;;;;;;;19.85;100.00;98581.51;1774279;80;20263;-85
2022/07/03 06:48:39;;;;;;;;;;;;;;;19.98;100.00;98585.84;1770503;79;22152;-86
2022/07/03 06:51:05;;;;;;;;;;;;;;;20.11;100.00;98581.39;1771437;79;26253;-85
2022/07/03 06:53:31;;;;;;;;;;;;;;;20.14;100.00;98579.72;1770736;80;20338;-88
2022/07/03 06:55:57;;;;;;;;;;;;;;;20.11;100.00;98580.90;1768547;80;20965;-86
2022/07/03 06:58:26;;;;;;;;;;;;;;;20.19;100.00;98576.91;1764110;79;25526;-86
2022/07/03 07:00:52;;;;;;;;;;;;;;;20.32;100.00;98579.95;1764640;80;22140;-86
2022/07/03 07:03:21;;;;;;;;;;;;;;;20.57;100.00;98578.61;1769212;80;21545;-86
2022/07/03 07:05:47;;;;;;;;;;;;;;;20.71;100.00;98577.47;1769119;79;24490;-86
2022/07/03 07:08:13;;;;;;;;;;;;;;;20.72;100.00;98574.31;1769006;80;20294;-87
2022/07/03 07:10:39;;;;;;;;;;;;;;;20.69;100.00;98574.13;1769264;80;20237;-87
2022/07/03 07:13:05;;;;;;;;;;;;;;;20.73;100.00;98579.97;1768728;80;20771;-87
2022/07/03 07:15:31;;;;;;;;;;;;;;;20.74;100.00;98581.11;1770550;80;26010;-87
2022/07/03 07:17:57;;;;;;;;;;;;;;;20.74;100.00;98572.30;1768928;80;20259;-87
2022/07/03 07:20:24;;;;;;;;;;;;;;;20.82;100.00;98569.64;1774251;79;20830;-90
2022/07/03 07:22:50;;;;;;;;;;;;;;;20.89;100.00;98563.45;1770491;79;24847;-87
2022/07/03 07:25:16;;;;;;;;;;;;;;;21.03;100.00;98558.45;1768009;80;20313;-86
2022/07/03 07:27:43;;;;;;;;;;;;;;;21.13;100.00;98561.75;1764755;79;21006;-86
2022/07/03 07:30:09;;;;;;;;;;;;;;;21.03;100.00;98560.62;1765842;80;25168;-87
2022/07/03 07:32:47;;;;;;;;;;;;;;;20.96;100.00;98556.12;1771977;79;20621;-87
2022/07/03 07:35:18;;;;;;;;;;;;;;;20.90;100.00;98560.30;1768064;80;24431;-87
2022/07/03 07:37:45;;;;;;;;;;;;;;;20.79;100.00;98551.34;1770411;79;21996;-90
2022/07/03 07:40:13;;;;;;;;;;;;;;;20.74;100.00;98547.03;1769503;79;26077;-90
2022/07/03 07:42:39;;;;;;;;;;;;;;;20.75;100.00;98551.35;1767637;80;24578;-90
2022/07/03 07:45:05;;;;;;;;;;;;;;;20.76;100.00;98554.34;1772908;80;20470;-90
2022/07/03 07:47:31;;;;;;;;;;;;;;;20.88;100.00;98563.65;1769682;80;24625;-86
2022/07/03 07:50:00;;;;;;;;;;;;;;;21.09;100.00;98555.95;1775057;80;20271;-86
2022/07/03 07:52:26;;;;;;;;;;;;;;;21.27;100.00;98554.44;1772127;80;25997;-87
2022/07/03 07:54:53;;;;;;;;;;;;;;;21.35;100.00;98552.23;1769530;80;20257;-89
2022/07/03 07:57:19;;;;;;;;;;;;;;;21.49;100.00;98555.52;1770502;80;20474;-90
2022/07/03 07:59:51;;;;;;;;;;;;;;;21.78;100.00;98554.35;1739114;80;20263;-86
2022/07/03 08:07:46;;;;;;;;;;;;;;;22.30;100.00;98553.23;1768855;80;24383;-90
2022/07/03 08:10:13;;;;;;;;;;;;;;;22.50;100.00;98558.89;1767601;79;20853;-90
2022/07/03 08:12:39;;;;;;;;;;;;;;;22.66;100.00;98549.91;1766739;79;25448;-87
2022/07/03 08:15:05;;;;;;;;;;;;;;;22.84;100.00;98546.45;1769105;80;23414;-89
2022/07/03 08:17:31;;;;;;;;;;;;;;;22.86;100.00;98553.74;1773701;80;26065;-86
2022/07/03 08:19:57;;;;;;;;;;;;;;;22.82;100.00;98553.80;1772468;80;20310;-90
2022/07/03 08:22:29;;;;;;;;;;;;;;;22.63;100.00;98560.45;1763084;80;20358;-90
2022/07/03 08:24:56;;;;;;;;;;;;;;;22.52;100.00;98564.39;1768496;80;24843;-89
2022/07/03 08:27:24;;;;;;;;;;;;;;;22.41;100.00;98557.31;1769024;80;21902;-90
2022/07/03 08:29:50;;;;;;;;;;;;;;;22.51;100.00;98556.55;1767056;79;26082;-90
2022/07/03 08:32:15;;;;;;;6.12;5.53;;;;;;;22.87;100.00;98560.24;1764355;80;20855;-90
2022/07/03 08:34:43;;;;;;;6.33;5.72;;;;;;;23.18;100.00;98560.11;1762327;79;28632;-89
2022/07/03 08:37:09;;;;;;;;;;;;;;;23.36;100.00;98562.38;1734957;80;28097;-90
2022/07/03 08:39:39;;;;;;;;;;;;;;;23.47;100.00;98556.61;1754521;80;22123;-87
2022/07/03 08:42:15;;;;;;;;;;;;;;;23.32;100.00;98556.59;1751598;80;25980;-87
2022/07/03 08:44:43;;;;;;;;;;;;;;;23.21;100.00;98554.39;1729115;81;24452;-87
2022/07/03 08:47:10;;;;;;;;;;;;;;;23.01;100.00;98552.45;1722794;81;20461;-86
2022/07/03 08:49:44;;;;;;;;;;;;;;;22.86;100.00;98553.24;1736374;80;25453;-87
2022/07/03 08:52:10;;;;;;;;;;;;;;;22.76;100.00;98552.68;1731533;81;21985;-87
2022/07/03 08:54:37;;;;;;;;;;;;;;;22.82;100.00;98552.45;1739619;81;26067;-89
2022/07/03 08:57:05;;;;;;;;;;;;;;;22.96;100.00;98554.84;1732784;81;25421;-90
2022/07/03 08:59:35;;;;;;;;;;;;;;;23.05;100.00;98551.06;1734413;82;20253;-86
2022/07/03 09:02:03;;;;;;;;;;;;;;;23.17;100.00;98552.27;1734245;81;24689;-90
2022/07/03 09:04:30;;;;;;;;;;;;;;;23.51;100.00;98550.41;1740191;82;22072;-87
2022/07/03 09:07:08;;;;;;;;;;;;;;;23.71;100.00;98546.13;1738818;81;26150;-86
2022/07/03 09:09:34;;;;;;;;;;;;;;;23.72;100.00;98546.45;1735703;81;24700;-86
2022/07/03 09:12:02;;;;;;;;;;;;;;;23.83;100.00;98549.97;1709634;81;20191;-87
2022/07/03 09:14:28;;;;;;;;;;;;;;;23.93;100.00;98542.47;1741558;81;25343;-87
2022/07/03 09:17:05;;;;;;;;;;;;;;;23.97;100.00;98541.07;1736490;81;20733;-89
2022/07/03 09:19:47;;;;;;;;;;;;;;;24.09;100.00;98541.40;1741846;80;26137;-86
2022/07/03 09:22:24;;;;;;;;;;;;;;;24.31;100.00;98542.27;1719316;81;24389;-86
2022/07/03 09:24:52;;;;;;;;;;;;;;;24.49;100.00;98540.77;1752423;80;20254;-86
2022/07/03 09:27:24;;;;;;;;;;;;;;;24.55;100.00;98542.67;1745739;80;24897;-87
2022/07/03 09:30:00;;;;;;;;;;;;;;;24.63;100.00;98540.38;1743043;80;22122;-86
2022/07/03 09:32:36;;;;;;;;;;;;;;;24.70;100.00;98537.26;1711078;81;26034;-86
2022/07/03 09:35:21;;;;;;;;;;;;;;;24.73;100.00;98536.02;1723287;81;24437;-87
2022/07/03 09:37:53;;;;;;;;;;;;;;;24.80;100.00;98539.59;1730181;82;209363;-86
2022/07/03 09:40:20;;;;;;;;;;;;;;;24.90;100.00;98534.23;1744193;82;24882;-86
2022/07/03 09:43:05;;;;;;;;;;;;;;;25.06;100.00;98541.13;1747740;81;21978;-86
2022/07/03 09:45:51;;;;;;;;;;;;;;;25.09;100.00;98535.40;1717605;81;26609;-86
2022/07/03 09:48:28;;;;;;;;;;;;;;;25.06;100.00;98529.08;1741085;80;23983;-89
2022/07/03 09:51:11;;;;;;;;;;;;;;;25.00;100.00;98525.34;1745738;80;20195;-89
2022/07/03 09:53:51;;;;;;;;;;;;;;;25.01;100.00;98523.48;1729012;80;25401;-86
2022/07/03 09:56:24;;;;;;;;;;;;;;;25.07;100.00;98521.37;1728777;82;22047;-87
2022/07/03 09:59:07;;;;;;;;;;;;;;;25.15;100.00;98527.09;1733730;82;26775;-86
2022/07/03 10:01:36;;;;;;;;;;;;;;;25.38;100.00;98516.88;1728404;82;24498;-86
2022/07/03 10:04:11;;;;;;;;;;;;;;;25.44;100.00;98514.75;1731259;80;20382;-86
2022/07/03 10:06:56;;;;;;;;;;;;;;;25.39;100.00;98514.02;1732328;82;25529;-86
2022/07/03 10:09:24;;;;;;;;;;;;;;;25.43;100.00;98513.92;1736167;80;21949;-86
2022/07/03 10:11:53;;;;;;;;;;;;;;;25.53;100.00;98515.42;1730327;82;27008;-87
2022/07/03 10:14:21;;;;;;;;;;;;;;;25.57;100.00;98514.02;1732808;80;24444;-86
2022/07/03 10:16:53;;;;;;;;;;;;;;;25.48;100.00;98509.30;1734053;80;20215;-86
2022/07/03 10:19:22;;;;;;;;;;;;;;;25.38;100.00;98508.33;1735462;82;24968;-86
2022/07/03 10:21:51;;;;;;;;;;;;;;;25.29;100.00;98518.09;1731691;82;21995;-87
2022/07/03 10:24:26;;;;;;;;;;;;;;;25.23;100.00;98513.01;1734666;82;26828;-86
2022/07/03 10:27:01;;;;;;;;;;;;;;;25.44;100.00;98510.73;1724788;80;184485;-90
2022/07/03 10:29:27;;;;;;;;;;;;;;;25.64;100.00;98504.16;1733323;82;20239;-86
2022/07/03 10:31:54;;;;;;;;;;;;;;;25.74;100.00;98503.26;1723727;81;24775;-86
2022/07/03 10:34:27;;;;;;;;;;;;;;;25.85;100.00;98499.16;1732220;81;21669;-87
2022/07/03 10:36:58;;;;;;;;;;;;;;;25.92;100.00;98499.98;1721805;82;55775;-87
2022/07/03 10:39:43;;;;;;;;;;;;;;;25.98;100.00;98500.51;1711864;82;24501;-90
2022/07/03 10:45:06;;;;;;;5.05;4.55;;;;;;;26.06;100.00;98502.50;1708522;82;28092;-86
2022/07/03 10:47:47;;;;;;;5.25;4.70;;;;;;;26.05;100.00;98503.53;1716178;82;28061;-86
2022/07/03 10:50:19;;;;;;;6.12;5.40;;;;;;;26.03;100.00;98503.41;1718078;80;28096;-87
2022/07/03 10:52:46;;;;;;;6.42;5.03;;;;;;;26.06;100.00;98495.80;1733108;82;28142;-86
2022/07/03 10:55:14;;;;;;;5.70;5.10;;;;;;;26.19;100.00;98501.67;1733599;80;28082;-90
2022/07/03 10:57:42;;;;;;;6.50;4.87;;;;;;;26.30;100.00;98495.73;1705015;82;28135;-86
2022/07/03 11:00:18;;;;;;;5.97;5.08;;;;;;;26.46;100.00;98497.17;1715862;82;28188;-86
2022/07/03 11:02:47;;;;;;;5.78;4.95;;;;;;;26.55;100.00;98493.27;1733196;81;28082;-88
2022/07/03 11:05:24;;;;;;;6.62;5.17;;;;;;;26.55;100.00;98491.92;1733834;82;28193;-90
2022/07/03 11:07:54;;;;;;;5.70;4.75;;;;;;;26.57;100.00;98487.16;1732678;81;28152;-89
2022/07/03 11:10:28;;;;;;;5.30;4.60;;;;;;;26.50;100.00;98489.04;1732085;82;28109;-86
2022/07/03 11:13:20;;;;;;;6.37;4.65;;;;;;;26.35;100.00;98483.06;1730655;80;28094;-86
2022/07/03 11:15:54;;;;;;;7.87;5.00;;;;;;;26.44;100.00;98477.78;1732065;82;28097;-86
2022/07/03 11:18:33;;;;;;;6.47;4.87;;;;;;;26.55;100.00;98480.67;1730311;82;28105;-86
2022/07/03 11:21:12;;;;;;;4.90;4.50;;;;;;;26.64;100.00;98476.73;1730563;80;28116;-89
2022/07/03 11:23:57;;;;;;;7.50;5.08;;;;;;;26.63;100.00;98472.91;1730064;81;28031;-86
2022/07/03 11:26:32;;;;;;;5.95;5.33;;;;;;;26.57;100.00;98461.14;1728583;82;28066;-87
2022/07/03 11:29:06;;;;;;;5.75;4.87;;;;;;;26.71;100.00;98470.53;1730411;80;28097;-86
2022/07/03 11:31:40;;;;;;;5.72;5.00;;;;;;;26.79;100.00;98463.06;1730330;82;28161;-86
2022/07/03 11:34:07;;;;;;;5.50;5.00;;;;;;;26.83;100.00;98462.98;1730502;82;28100;-86
2022/07/03 11:36:35;;;;;;;10.13;5.08;;;;;;;26.70;100.00;98458.13;1752974;78;28130;-86
2022/07/03 11:39:07;;;;;;;5.67;5.17;;;;;;;26.44;100.00;98453.63;1793373;78;28049;-90
2022/07/03 11:41:44;;;;;;;6.25;4.95;;;;;;;26.31;100.00;98452.28;1739308;80;28099;-90
2022/07/03 11:44:16;;;;;;;5.75;5.17;;;;;;;26.27;100.00;98449.20;1743952;80;28115;-86
2022/07/03 11:46:48;;;;;;;5.22;4.62;;;;;;;26.40;100.00;98452.41;1736083;80;28121;-86
2022/07/03 11:49:22;;;;;;;5.30;4.58;;;;;;;26.62;100.00;98459.20;1778576;78;28069;-86
2022/07/03 11:52:00;;;;;;;6.28;5.67;;;;;;;26.79;100.00;98456.87;1745704;80;28073;-86
2022/07/03 11:54:32;;;;;;;5.65;5.10;;;;;;;26.84;100.00;98451.17;1718991;81;28110;-87
2022/07/03 11:57:00;;;;;;;7.40;5.22;;;;;;;27.09;100.00;98447.84;1734834;80;28111;-87
2022/07/03 11:59:27;;;;;;;6.03;5.42;;;;;;;27.32;100.00;98445.48;1747638;79;28077;-87
2022/07/03 12:01:57;;;;;;;5.90;5.33;;;;;;;27.46;100.00;98451.09;1744235;80;28086;-87
2022/07/03 12:04:31;;;;;;;6.28;5.08;;;;;;;27.57;100.00;98445.07;1768233;80;28140;-86
2022/07/03 12:07:01;;;;;;;6.00;5.08;;;;;;;27.77;100.00;98443.09;1758033;80;28143;-87
2022/07/03 12:09:36;;;;;;;5.83;5.22;;;;;;;27.90;100.00;98446.22;1794379;78;28062;-90
2022/07/03 12:12:04;;;;;;;7.20;5.85;;;;;;;28.02;100.00;98446.34;1778933;79;28134;-89
2022/07/03 12:14:41;;;;;;;7.30;5.90;;;;;;;28.15;100.00;98447.61;1740975;81;28177;-90
2022/07/03 12:17:19;;;;;;;6.22;5.28;;;;;;;28.26;100.00;98439.65;1776374;79;28138;-87
2022/07/03 12:20:00;;;;;;;5.65;5.03;;;;;;;28.34;100.00;98443.95;1777407;79;28008;-86
2022/07/03 12:22:41;;;;;;;5.87;4.92;;;;;;;28.42;100.00;98442.30;1739715;80;28046;-86
2022/07/03 12:25:10;;;;;;;5.72;5.17;;;;;;;28.44;100.00;98440.75;1746109;81;28093;-86
2022/07/03 12:27:43;;;;;;;7.10;5.85;;;;;;;28.42;100.00;98432.09;1745708;80;28089;-86
2022/07/03 12:30:11;;;;;;;6.05;5.45;;;;;;;28.36;99.47;98425.72;1780248;79;28116;-85
2022/07/03 12:32:45;;;;;;;5.85;5.05;;;;;;;28.15;98.18;98424.73;1779000;79;28095;-85
2022/07/03 12:35:12;;;;;;;6.35;5.75;;;;;;;27.78;96.45;98427.25;1744605;80;28057;-87
2022/07/03 12:37:40;;;;;;;7.22;5.78;;;;;;;27.69;96.12;98420.50;1739342;80;28093;-86